Dionisio Cerqueira, Brazil
Current Conditions -  °F | °C
As of 1:00 AM on Sunday 26 Oct 2014 (Local Time) from SARI Reporting Station
Clear Clear  
Wind Chill: 75°   Ceiling: Unl
Heat Index: 75°   Visibility: 6mi
Dew Point: 72°   Wind: 7mph
Humidity: 89%   Direction: 50°NE
Pressure: 29.88"   Gusts: NA
Location:  26.26°S, 53.64°W
Report Text: SARI 260300Z 05006KT CAVOK 24/22 Q1012
Loading
Personal Weather Stations






























Interactive Weather Map
Tropical Storm Tracking
New forecast layout! Learn more

10-Day Weather Forecast

Advertisements
Track Severe Weather on mobile